sensor_id;sensor_type;location;lat;lon;timestamp;P1;durP1;ratioP1;P2;durP2;ratioP2
3967;SDS011;9221;42.646;23.380;2024-02-28T00:00:26;32.77;;;10.90;;
3967;SDS011;9221;42.646;23.380;2024-02-28T00:02:51;26.60;;;9.07;;
3967;SDS011;9221;42.646;23.380;2024-02-28T00:05:17;31.53;;;10.50;;
3967;SDS011;9221;42.646;23.380;2024-02-28T00:07:42;37.63;;;10.50;;
3967;SDS011;9221;42.646;23.380;2024-02-28T00:10:08;33.00;;;10.80;;
3967;SDS011;9221;42.646;23.380;2024-02-28T00:12:34;40.23;;;12.27;;
3967;SDS011;9221;42.646;23.380;2024-02-28T00:15:00;33.83;;;10.00;;
3967;SDS011;9221;42.646;23.380;2024-02-28T00:17:25;37.10;;;11.93;;
3967;SDS011;9221;42.646;23.380;2024-02-28T00:19:51;34.00;;;11.10;;
3967;SDS011;9221;42.646;23.380;2024-02-28T00:22:18;29.40;;;10.10;;
3967;SDS011;9221;42.646;23.380;2024-02-28T00:24:44;25.97;;;10.10;;
3967;SDS011;9221;42.646;23.380;2024-02-28T00:27:09;35.60;;;11.53;;
3967;SDS011;9221;42.646;23.380;2024-02-28T00:29:35;30.13;;;9.73;;
3967;SDS011;9221;42.646;23.380;2024-02-28T00:32:00;36.17;;;10.80;;
3967;SDS011;9221;42.646;23.380;2024-02-28T00:34:26;30.07;;;11.80;;
3967;SDS011;9221;42.646;23.380;2024-02-28T00:36:51;34.07;;;11.00;;
3967;SDS011;9221;42.646;23.380;2024-02-28T00:39:17;38.83;;;12.00;;
3967;SDS011;9221;42.646;23.380;2024-02-28T00:41:42;31.33;;;10.77;;
3967;SDS011;9221;42.646;23.380;2024-02-28T00:44:08;34.27;;;10.73;;
3967;SDS011;9221;42.646;23.380;2024-02-28T00:46:34;33.50;;;10.77;;
3967;SDS011;9221;42.646;23.380;2024-02-28T00:48:59;39.43;;;11.47;;
3967;SDS011;9221;42.646;23.380;2024-02-28T00:51:25;30.03;;;11.10;;
3967;SDS011;9221;42.646;23.380;2024-02-28T00:53:50;38.73;;;12.50;;
3967;SDS011;9221;42.646;23.380;2024-02-28T00:56:16;36.07;;;11.53;;
3967;SDS011;9221;42.646;23.380;2024-02-28T00:58:43;30.03;;;11.30;;
3967;SDS011;9221;42.646;23.380;2024-02-28T01:01:09;34.90;;;11.07;;
3967;SDS011;9221;42.646;23.380;2024-02-28T01:03:34;36.43;;;11.60;;
3967;SDS011;9221;42.646;23.380;2024-02-28T01:06:00;40.73;;;12.73;;
3967;SDS011;9221;42.646;23.380;2024-02-28T01:08:26;37.90;;;11.13;;
3967;SDS011;9221;42.646;23.380;2024-02-28T01:10:52;34.80;;;11.83;;
3967;SDS011;9221;42.646;23.380;2024-02-28T01:13:17;29.30;;;11.47;;
3967;SDS011;9221;42.646;23.380;2024-02-28T01:15:43;37.73;;;11.70;;
3967;SDS011;9221;42.646;23.380;2024-02-28T01:18:09;41.40;;;11.53;;
3967;SDS011;9221;42.646;23.380;2024-02-28T01:20:35;36.03;;;12.70;;
3967;SDS011;9221;42.646;23.380;2024-02-28T01:23:01;33.27;;;10.50;;
3967;SDS011;9221;42.646;23.380;2024-02-28T01:25:27;36.50;;;12.23;;
3967;SDS011;9221;42.646;23.380;2024-02-28T01:27:52;35.10;;;12.03;;
3967;SDS011;9221;42.646;23.380;2024-02-28T01:30:18;32.07;;;11.50;;
3967;SDS011;9221;42.646;23.380;2024-02-28T01:32:44;33.40;;;11.30;;
3967;SDS011;9221;42.646;23.380;2024-02-28T01:35:09;40.53;;;13.63;;
3967;SDS011;9221;42.646;23.380;2024-02-28T01:37:35;41.53;;;12.90;;
3967;SDS011;9221;42.646;23.380;2024-02-28T01:40:00;32.60;;;12.00;;
3967;SDS011;9221;42.646;23.380;2024-02-28T01:42:25;33.83;;;12.97;;
3967;SDS011;9221;42.646;23.380;2024-02-28T01:44:51;35.13;;;12.13;;
3967;SDS011;9221;42.646;23.380;2024-02-28T01:47:17;31.33;;;11.60;;
3967;SDS011;9221;42.646;23.380;2024-02-28T01:49:43;31.27;;;11.27;;
3967;SDS011;9221;42.646;23.380;2024-02-28T01:52:11;38.27;;;12.67;;
3967;SDS011;9221;42.646;23.380;2024-02-28T01:54:37;34.53;;;12.07;;
3967;SDS011;9221;42.646;23.380;2024-02-28T01:57:04;35.43;;;11.53;;
3967;SDS011;9221;42.646;23.380;2024-02-28T01:59:30;34.70;;;12.47;;
3967;SDS011;9221;42.646;23.380;2024-02-28T02:01:57;42.33;;;14.00;;
3967;SDS011;9221;42.646;23.380;2024-02-28T02:04:22;38.37;;;12.07;;
3967;SDS011;9221;42.646;23.380;2024-02-28T02:06:48;42.90;;;13.30;;
3967;SDS011;9221;42.646;23.380;2024-02-28T02:09:14;36.43;;;11.80;;
3967;SDS011;9221;42.646;23.380;2024-02-28T02:11:41;40.53;;;12.00;;
3967;SDS011;9221;42.646;23.380;2024-02-28T02:14:06;37.70;;;11.80;;
3967;SDS011;9221;42.646;23.380;2024-02-28T02:16:33;32.23;;;11.90;;
3967;SDS011;9221;42.646;23.380;2024-02-28T02:18:59;37.43;;;12.10;;
3967;SDS011;9221;42.646;23.380;2024-02-28T02:21:26;36.40;;;12.87;;
3967;SDS011;9221;42.646;23.380;2024-02-28T02:23:55;38.47;;;13.17;;
3967;SDS011;9221;42.646;23.380;2024-02-28T02:26:21;31.73;;;10.70;;
3967;SDS011;9221;42.646;23.380;2024-02-28T02:28:46;45.93;;;12.73;;
3967;SDS011;9221;42.646;23.380;2024-02-28T02:31:13;31.93;;;10.70;;
3967;SDS011;9221;42.646;23.380;2024-02-28T02:33:38;41.73;;;12.90;;
3967;SDS011;9221;42.646;23.380;2024-02-28T02:36:04;31.53;;;11.13;;
3967;SDS011;9221;42.646;23.380;2024-02-28T02:38:30;35.87;;;12.80;;
3967;SDS011;9221;42.646;23.380;2024-02-28T02:40:55;42.10;;;10.43;;
3967;SDS011;9221;42.646;23.380;2024-02-28T02:43:21;33.47;;;12.53;;
3967;SDS011;9221;42.646;23.380;2024-02-28T02:45:46;32.80;;;11.60;;
3967;SDS011;9221;42.646;23.380;2024-02-28T02:48:12;47.47;;;13.03;;
3967;SDS011;9221;42.646;23.380;2024-02-28T02:50:37;41.87;;;11.73;;
3967;SDS011;9221;42.646;23.380;2024-02-28T02:53:03;35.73;;;13.00;;
3967;SDS011;9221;42.646;23.380;2024-02-28T02:55:29;37.47;;;12.13;;
3967;SDS011;9221;42.646;23.380;2024-02-28T02:57:54;36.80;;;12.07;;
3967;SDS011;9221;42.646;23.380;2024-02-28T03:00:20;35.03;;;11.60;;
3967;SDS011;9221;42.646;23.380;2024-02-28T03:02:46;33.80;;;11.80;;
3967;SDS011;9221;42.646;23.380;2024-02-28T03:05:12;32.87;;;11.43;;
3967;SDS011;9221;42.646;23.380;2024-02-28T03:07:37;36.50;;;12.10;;
3967;SDS011;9221;42.646;23.380;2024-02-28T03:10:03;30.27;;;11.77;;
3967;SDS011;9221;42.646;23.380;2024-02-28T03:12:29;37.37;;;12.93;;
3967;SDS011;9221;42.646;23.380;2024-02-28T03:14:54;42.83;;;14.27;;
3967;SDS011;9221;42.646;23.380;2024-02-28T03:17:20;31.13;;;11.80;;
3967;SDS011;9221;42.646;23.380;2024-02-28T03:19:45;35.07;;;11.70;;
3967;SDS011;9221;42.646;23.380;2024-02-28T03:22:11;35.53;;;11.53;;
3967;SDS011;9221;42.646;23.380;2024-02-28T03:24:36;37.97;;;12.63;;
3967;SDS011;9221;42.646;23.380;2024-02-28T03:27:02;33.77;;;11.70;;
3967;SDS011;9221;42.646;23.380;2024-02-28T03:29:28;45.30;;;13.00;;
3967;SDS011;9221;42.646;23.380;2024-02-28T03:31:54;43.43;;;13.27;;
3967;SDS011;9221;42.646;23.380;2024-02-28T03:34:19;39.13;;;13.00;;
3967;SDS011;9221;42.646;23.380;2024-02-28T03:36:45;40.33;;;13.43;;
3967;SDS011;9221;42.646;23.380;2024-02-28T03:39:11;35.50;;;12.87;;
3967;SDS011;9221;42.646;23.380;2024-02-28T03:41:37;39.00;;;12.13;;
3967;SDS011;9221;42.646;23.380;2024-02-28T03:44:03;36.87;;;13.20;;
3967;SDS011;9221;42.646;23.380;2024-02-28T03:46:29;35.03;;;12.40;;
3967;SDS011;9221;42.646;23.380;2024-02-28T03:48:55;38.13;;;12.50;;
3967;SDS011;9221;42.646;23.380;2024-02-28T03:51:20;36.23;;;11.70;;
3967;SDS011;9221;42.646;23.380;2024-02-28T03:53:46;38.30;;;11.60;;
3967;SDS011;9221;42.646;23.380;2024-02-28T03:56:11;39.43;;;13.03;;
3967;SDS011;9221;42.646;23.380;2024-02-28T03:58:37;33.17;;;12.10;;
3967;SDS011;9221;42.646;23.380;2024-02-28T04:01:03;39.80;;;12.00;;
3967;SDS011;9221;42.646;23.380;2024-02-28T04:03:28;33.13;;;11.67;;
3967;SDS011;9221;42.646;23.380;2024-02-28T04:05:54;52.10;;;12.80;;
3967;SDS011;9221;42.646;23.380;2024-02-28T04:08:19;32.70;;;11.53;;
3967;SDS011;9221;42.646;23.380;2024-02-28T04:10:45;32.20;;;12.20;;
3967;SDS011;9221;42.646;23.380;2024-02-28T04:13:11;32.83;;;12.53;;
3967;SDS011;9221;42.646;23.380;2024-02-28T04:15:36;44.97;;;13.70;;
3967;SDS011;9221;42.646;23.380;2024-02-28T04:18:03;32.10;;;12.20;;
3967;SDS011;9221;42.646;23.380;2024-02-28T04:20:29;40.50;;;12.90;;
3967;SDS011;9221;42.646;23.380;2024-02-28T04:22:54;35.77;;;12.37;;
3967;SDS011;9221;42.646;23.380;2024-02-28T04:25:20;43.90;;;13.67;;
3967;SDS011;9221;42.646;23.380;2024-02-28T04:27:45;33.93;;;12.50;;
3967;SDS011;9221;42.646;23.380;2024-02-28T04:30:12;39.00;;;12.97;;
3967;SDS011;9221;42.646;23.380;2024-02-28T04:32:38;40.33;;;13.50;;
3967;SDS011;9221;42.646;23.380;2024-02-28T04:35:03;39.50;;;12.93;;
3967;SDS011;9221;42.646;23.380;2024-02-28T04:37:29;36.77;;;12.07;;
3967;SDS011;9221;42.646;23.380;2024-02-28T04:39:55;41.17;;;12.40;;
3967;SDS011;9221;42.646;23.380;2024-02-28T04:42:20;39.20;;;12.73;;
3967;SDS011;9221;42.646;23.380;2024-02-28T04:44:46;38.57;;;12.97;;
3967;SDS011;9221;42.646;23.380;2024-02-28T04:47:11;41.27;;;12.90;;
3967;SDS011;9221;42.646;23.380;2024-02-28T04:49:37;39.67;;;13.03;;
3967;SDS011;9221;42.646;23.380;2024-02-28T04:52:04;35.77;;;12.07;;
3967;SDS011;9221;42.646;23.380;2024-02-28T04:54:30;34.00;;;12.13;;
3967;SDS011;9221;42.646;23.380;2024-02-28T04:56:55;37.53;;;12.60;;
3967;SDS011;9221;42.646;23.380;2024-02-28T04:59:21;31.50;;;11.60;;
3967;SDS011;9221;42.646;23.380;2024-02-28T05:01:46;32.37;;;11.50;;
3967;SDS011;9221;42.646;23.380;2024-02-28T05:04:13;42.20;;;13.70;;
3967;SDS011;9221;42.646;23.380;2024-02-28T05:06:38;44.73;;;13.50;;
3967;SDS011;9221;42.646;23.380;2024-02-28T05:09:04;31.17;;;10.60;;
3967;SDS011;9221;42.646;23.380;2024-02-28T05:11:30;41.90;;;12.30;;
3967;SDS011;9221;42.646;23.380;2024-02-28T05:13:55;36.00;;;13.30;;
3967;SDS011;9221;42.646;23.380;2024-02-28T05:16:20;38.83;;;12.37;;
3967;SDS011;9221;42.646;23.380;2024-02-28T05:18:46;41.97;;;13.27;;
3967;SDS011;9221;42.646;23.380;2024-02-28T05:21:12;44.17;;;12.23;;
3967;SDS011;9221;42.646;23.380;2024-02-28T05:23:39;35.03;;;11.47;;
3967;SDS011;9221;42.646;23.380;2024-02-28T05:26:05;33.33;;;11.73;;
3967;SDS011;9221;42.646;23.380;2024-02-28T05:28:32;36.20;;;11.23;;
3967;SDS011;9221;42.646;23.380;2024-02-28T05:31:10;36.43;;;11.80;;
3967;SDS011;9221;42.646;23.380;2024-02-28T05:33:48;31.90;;;10.93;;
3967;SDS011;9221;42.646;23.380;2024-02-28T05:36:15;32.67;;;12.53;;
3967;SDS011;9221;42.646;23.380;2024-02-28T05:38:41;34.03;;;11.77;;
3967;SDS011;9221;42.646;23.380;2024-02-28T05:41:07;39.87;;;11.97;;
3967;SDS011;9221;42.646;23.380;2024-02-28T05:43:32;32.60;;;12.13;;
3967;SDS011;9221;42.646;23.380;2024-02-28T05:45:58;31.60;;;10.30;;
3967;SDS011;9221;42.646;23.380;2024-02-28T05:48:23;39.00;;;13.07;;
3967;SDS011;9221;42.646;23.380;2024-02-28T05:50:49;38.53;;;12.50;;
3967;SDS011;9221;42.646;23.380;2024-02-28T05:53:14;35.83;;;11.43;;
3967;SDS011;9221;42.646;23.380;2024-02-28T05:55:40;41.33;;;13.10;;
3967;SDS011;9221;42.646;23.380;2024-02-28T05:58:05;32.00;;;11.33;;
3967;SDS011;9221;42.646;23.380;2024-02-28T06:00:31;40.53;;;12.10;;
3967;SDS011;9221;42.646;23.380;2024-02-28T06:02:56;37.30;;;11.93;;
3967;SDS011;9221;42.646;23.380;2024-02-28T06:05:21;33.47;;;11.97;;
3967;SDS011;9221;42.646;23.380;2024-02-28T06:07:47;38.70;;;13.33;;
3967;SDS011;9221;42.646;23.380;2024-02-28T06:10:12;33.80;;;12.63;;
3967;SDS011;9221;42.646;23.380;2024-02-28T06:12:38;34.03;;;12.17;;
3967;SDS011;9221;42.646;23.380;2024-02-28T06:15:04;40.27;;;13.63;;
3967;SDS011;9221;42.646;23.380;2024-02-28T06:17:29;39.57;;;13.53;;
3967;SDS011;9221;42.646;23.380;2024-02-28T06:19:55;28.53;;;11.37;;
3967;SDS011;9221;42.646;23.380;2024-02-28T06:22:20;36.27;;;11.40;;
3967;SDS011;9221;42.646;23.380;2024-02-28T06:24:46;33.83;;;10.87;;
3967;SDS011;9221;42.646;23.380;2024-02-28T06:27:11;38.47;;;12.77;;
3967;SDS011;9221;42.646;23.380;2024-02-28T06:29:38;31.00;;;11.50;;
3967;SDS011;9221;42.646;23.380;2024-02-28T06:32:05;32.73;;;11.07;;
3967;SDS011;9221;42.646;23.380;2024-02-28T06:34:30;44.10;;;13.17;;
3967;SDS011;9221;42.646;23.380;2024-02-28T06:36:56;45.27;;;13.20;;
3967;SDS011;9221;42.646;23.380;2024-02-28T06:39:21;36.40;;;12.77;;
3967;SDS011;9221;42.646;23.380;2024-02-28T06:41:47;38.20;;;13.00;;
3967;SDS011;9221;42.646;23.380;2024-02-28T06:44:16;41.00;;;12.40;;
3967;SDS011;9221;42.646;23.380;2024-02-28T06:46:44;35.90;;;11.27;;
3967;SDS011;9221;42.646;23.380;2024-02-28T06:49:10;40.57;;;11.97;;
3967;SDS011;9221;42.646;23.380;2024-02-28T06:51:35;36.97;;;12.67;;
3967;SDS011;9221;42.646;23.380;2024-02-28T06:54:01;30.60;;;11.10;;
3967;SDS011;9221;42.646;23.380;2024-02-28T06:56:27;44.97;;;13.00;;
3967;SDS011;9221;42.646;23.380;2024-02-28T06:58:52;40.37;;;13.13;;
3967;SDS011;9221;42.646;23.380;2024-02-28T07:01:18;45.97;;;15.37;;
3967;SDS011;9221;42.646;23.380;2024-02-28T07:03:44;35.47;;;12.60;;
3967;SDS011;9221;42.646;23.380;2024-02-28T07:06:09;47.43;;;14.67;;
3967;SDS011;9221;42.646;23.380;2024-02-28T07:08:36;40.33;;;14.03;;
3967;SDS011;9221;42.646;23.380;2024-02-28T07:11:02;38.83;;;15.10;;
3967;SDS011;9221;42.646;23.380;2024-02-28T07:13:27;46.83;;;14.10;;
3967;SDS011;9221;42.646;23.380;2024-02-28T07:15:53;65.90;;;15.60;;
3967;SDS011;9221;42.646;23.380;2024-02-28T07:18:23;42.10;;;14.17;;
3967;SDS011;9221;42.646;23.380;2024-02-28T07:20:54;38.30;;;12.50;;
3967;SDS011;9221;42.646;23.380;2024-02-28T07:23:19;36.40;;;13.30;;
3967;SDS011;9221;42.646;23.380;2024-02-28T07:25:45;42.87;;;14.57;;
3967;SDS011;9221;42.646;23.380;2024-02-28T07:28:10;45.00;;;13.30;;
3967;SDS011;9221;42.646;23.380;2024-02-28T07:30:36;38.43;;;13.43;;
3967;SDS011;9221;42.646;23.380;2024-02-28T07:33:01;41.60;;;14.60;;
3967;SDS011;9221;42.646;23.380;2024-02-28T07:35:27;39.70;;;12.90;;
3967;SDS011;9221;42.646;23.380;2024-02-28T07:37:53;40.00;;;14.60;;
3967;SDS011;9221;42.646;23.380;2024-02-28T07:40:18;38.90;;;14.10;;
3967;SDS011;9221;42.646;23.380;2024-02-28T07:42:44;48.10;;;13.20;;
3967;SDS011;9221;42.646;23.380;2024-02-28T07:45:09;42.33;;;14.10;;
3967;SDS011;9221;42.646;23.380;2024-02-28T07:47:35;39.83;;;13.30;;
3967;SDS011;9221;42.646;23.380;2024-02-28T07:50:02;41.93;;;14.37;;
3967;SDS011;9221;42.646;23.380;2024-02-28T07:52:28;42.97;;;13.93;;
3967;SDS011;9221;42.646;23.380;2024-02-28T07:54:53;41.20;;;12.83;;
3967;SDS011;9221;42.646;23.380;2024-02-28T07:57:19;46.63;;;15.03;;
3967;SDS011;9221;42.646;23.380;2024-02-28T07:59:44;38.57;;;12.80;;
3967;SDS011;9221;42.646;23.380;2024-02-28T08:02:10;36.27;;;13.30;;
3967;SDS011;9221;42.646;23.380;2024-02-28T08:04:38;37.47;;;13.33;;
3967;SDS011;9221;42.646;23.380;2024-02-28T08:07:04;43.90;;;14.20;;
3967;SDS011;9221;42.646;23.380;2024-02-28T08:09:30;30.27;;;12.57;;
3967;SDS011;9221;42.646;23.380;2024-02-28T08:11:56;34.37;;;12.43;;
3967;SDS011;9221;42.646;23.380;2024-02-28T08:14:23;35.37;;;12.53;;
3967;SDS011;9221;42.646;23.380;2024-02-28T08:16:49;35.30;;;12.97;;
3967;SDS011;9221;42.646;23.380;2024-02-28T08:19:14;36.10;;;14.07;;
3967;SDS011;9221;42.646;23.380;2024-02-28T08:21:40;38.70;;;13.13;;
3967;SDS011;9221;42.646;23.380;2024-02-28T08:24:06;31.47;;;11.60;;
3967;SDS011;9221;42.646;23.380;2024-02-28T08:26:31;38.37;;;12.33;;
3967;SDS011;9221;42.646;23.380;2024-02-28T08:28:57;35.73;;;11.97;;
3967;SDS011;9221;42.646;23.380;2024-02-28T08:31:22;28.87;;;10.27;;
3967;SDS011;9221;42.646;23.380;2024-02-28T08:33:48;46.73;;;11.40;;
3967;SDS011;9221;42.646;23.380;2024-02-28T08:36:13;30.70;;;11.90;;
3967;SDS011;9221;42.646;23.380;2024-02-28T08:38:40;36.67;;;12.17;;
3967;SDS011;9221;42.646;23.380;2024-02-28T08:41:06;32.80;;;11.50;;
3967;SDS011;9221;42.646;23.380;2024-02-28T08:43:32;40.67;;;13.90;;
3967;SDS011;9221;42.646;23.380;2024-02-28T08:46:07;31.80;;;12.63;;
3967;SDS011;9221;42.646;23.380;2024-02-28T08:48:33;32.40;;;11.53;;
3967;SDS011;9221;42.646;23.380;2024-02-28T08:50:58;34.40;;;12.47;;
3967;SDS011;9221;42.646;23.380;2024-02-28T08:53:24;38.27;;;13.00;;
3967;SDS011;9221;42.646;23.380;2024-02-28T08:55:49;42.53;;;12.97;;
3967;SDS011;9221;42.646;23.380;2024-02-28T08:58:15;38.57;;;13.77;;
3967;SDS011;9221;42.646;23.380;2024-02-28T09:00:40;43.97;;;16.53;;
3967;SDS011;9221;42.646;23.380;2024-02-28T09:03:06;54.00;;;17.10;;
3967;SDS011;9221;42.646;23.380;2024-02-28T09:05:31;51.00;;;16.00;;
3967;SDS011;9221;42.646;23.380;2024-02-28T09:07:57;43.13;;;14.27;;
3967;SDS011;9221;42.646;23.380;2024-02-28T09:10:23;46.80;;;16.47;;
3967;SDS011;9221;42.646;23.380;2024-02-28T09:12:52;40.50;;;15.50;;
3967;SDS011;9221;42.646;23.380;2024-02-28T09:15:18;39.70;;;15.30;;
3967;SDS011;9221;42.646;23.380;2024-02-28T09:17:44;46.47;;;13.63;;
3967;SDS011;9221;42.646;23.380;2024-02-28T09:20:10;38.90;;;12.10;;
3967;SDS011;9221;42.646;23.380;2024-02-28T09:22:36;32.20;;;11.50;;
3967;SDS011;9221;42.646;23.380;2024-02-28T09:25:01;43.33;;;12.90;;
3967;SDS011;9221;42.646;23.380;2024-02-28T09:27:29;33.80;;;12.53;;
3967;SDS011;9221;42.646;23.380;2024-02-28T09:29:55;49.60;;;14.13;;
3967;SDS011;9221;42.646;23.380;2024-02-28T09:32:21;38.13;;;13.07;;
3967;SDS011;9221;42.646;23.380;2024-02-28T09:34:46;40.83;;;12.90;;
3967;SDS011;9221;42.646;23.380;2024-02-28T09:37:12;31.10;;;11.10;;
3967;SDS011;9221;42.646;23.380;2024-02-28T09:39:38;37.00;;;12.40;;
3967;SDS011;9221;42.646;23.380;2024-02-28T09:42:05;34.20;;;10.80;;
3967;SDS011;9221;42.646;23.380;2024-02-28T09:44:31;36.07;;;11.90;;
3967;SDS011;9221;42.646;23.380;2024-02-28T09:46:58;39.40;;;12.80;;
3967;SDS011;9221;42.646;23.380;2024-02-28T09:49:24;28.37;;;10.23;;
3967;SDS011;9221;42.646;23.380;2024-02-28T09:51:51;23.97;;;8.70;;
3967;SDS011;9221;42.646;23.380;2024-02-28T09:54:17;28.57;;;10.40;;
3967;SDS011;9221;42.646;23.380;2024-02-28T09:56:43;26.50;;;9.80;;
3967;SDS011;9221;42.646;23.380;2024-02-28T09:59:09;33.37;;;11.10;;
3967;SDS011;9221;42.646;23.380;2024-02-28T10:01:37;34.43;;;11.30;;
3967;SDS011;9221;42.646;23.380;2024-02-28T10:04:07;37.97;;;12.37;;
3967;SDS011;9221;42.646;23.380;2024-02-28T10:06:36;33.33;;;10.57;;
3967;SDS011;9221;42.646;23.380;2024-02-28T10:09:01;27.40;;;9.83;;
3967;SDS011;9221;42.646;23.380;2024-02-28T10:11:27;37.07;;;9.90;;
3967;SDS011;9221;42.646;23.380;2024-02-28T10:13:54;26.60;;;9.20;;
3967;SDS011;9221;42.646;23.380;2024-02-28T10:16:20;24.13;;;9.23;;
3967;SDS011;9221;42.646;23.380;2024-02-28T10:18:46;30.33;;;9.50;;
3967;SDS011;9221;42.646;23.380;2024-02-28T10:21:12;26.67;;;8.73;;
3967;SDS011;9221;42.646;23.380;2024-02-28T10:23:39;25.50;;;9.23;;
3967;SDS011;9221;42.646;23.380;2024-02-28T10:26:05;20.17;;;8.47;;
3967;SDS011;9221;42.646;23.380;2024-02-28T10:28:30;25.70;;;8.70;;
3967;SDS011;9221;42.646;23.380;2024-02-28T10:30:56;26.07;;;9.00;;
3967;SDS011;9221;42.646;23.380;2024-02-28T10:33:25;27.70;;;9.70;;
3967;SDS011;9221;42.646;23.380;2024-02-28T10:35:54;30.40;;;8.80;;
3967;SDS011;9221;42.646;23.380;2024-02-28T10:38:20;25.47;;;8.27;;
3967;SDS011;9221;42.646;23.380;2024-02-28T10:40:46;31.50;;;8.53;;
3967;SDS011;9221;42.646;23.380;2024-02-28T10:43:12;24.07;;;8.57;;
3967;SDS011;9221;42.646;23.380;2024-02-28T10:45:42;26.50;;;7.27;;
3967;SDS011;9221;42.646;23.380;2024-02-28T10:48:08;23.50;;;6.70;;
3967;SDS011;9221;42.646;23.380;2024-02-28T10:50:33;25.27;;;7.97;;
3967;SDS011;9221;42.646;23.380;2024-02-28T10:53:00;24.40;;;7.73;;
3967;SDS011;9221;42.646;23.380;2024-02-28T10:55:33;19.00;;;6.67;;
3967;SDS011;9221;42.646;23.380;2024-02-28T10:58:08;21.73;;;7.40;;
3967;SDS011;9221;42.646;23.380;2024-02-28T11:00:38;22.00;;;7.00;;
3967;SDS011;9221;42.646;23.380;2024-02-28T11:03:12;24.30;;;8.10;;
3967;SDS011;9221;42.646;23.380;2024-02-28T11:05:41;16.87;;;7.00;;
3967;SDS011;9221;42.646;23.380;2024-02-28T11:08:11;24.57;;;7.93;;
3967;SDS011;9221;42.646;23.380;2024-02-28T11:10:45;17.57;;;6.47;;
3967;SDS011;9221;42.646;23.380;2024-02-28T11:13:21;20.50;;;7.40;;
3967;SDS011;9221;42.646;23.380;2024-02-28T11:15:51;18.33;;;7.00;;
3967;SDS011;9221;42.646;23.380;2024-02-28T11:18:17;19.67;;;7.10;;
3967;SDS011;9221;42.646;23.380;2024-02-28T11:20:43;20.00;;;7.23;;
3967;SDS011;9221;42.646;23.380;2024-02-28T11:23:11;29.53;;;7.30;;
3967;SDS011;9221;42.646;23.380;2024-02-28T11:25:37;17.40;;;7.10;;
3967;SDS011;9221;42.646;23.380;2024-02-28T11:28:03;17.50;;;6.53;;
3967;SDS011;9221;42.646;23.380;2024-02-28T11:30:29;21.53;;;6.80;;
3967;SDS011;9221;42.646;23.380;2024-02-28T11:32:55;30.00;;;7.03;;
3967;SDS011;9221;42.646;23.380;2024-02-28T11:35:23;18.90;;;6.10;;
3967;SDS011;9221;42.646;23.380;2024-02-28T11:37:49;17.40;;;6.10;;
3967;SDS011;9221;42.646;23.380;2024-02-28T11:40:15;18.77;;;7.37;;
3967;SDS011;9221;42.646;23.380;2024-02-28T11:42:41;15.50;;;6.23;;
3967;SDS011;9221;42.646;23.380;2024-02-28T11:45:09;21.33;;;6.53;;
3967;SDS011;9221;42.646;23.380;2024-02-28T11:47:35;35.83;;;6.90;;
3967;SDS011;9221;42.646;23.380;2024-02-28T11:50:01;18.77;;;6.53;;
3967;SDS011;9221;42.646;23.380;2024-02-28T11:52:30;23.77;;;6.90;;
3967;SDS011;9221;42.646;23.380;2024-02-28T11:54:55;11.20;;;4.90;;
3967;SDS011;9221;42.646;23.380;2024-02-28T11:57:21;18.00;;;5.97;;
3967;SDS011;9221;42.646;23.380;2024-02-28T11:59:47;29.37;;;7.77;;
3967;SDS011;9221;42.646;23.380;2024-02-28T12:02:14;22.20;;;8.80;;
3967;SDS011;9221;42.646;23.380;2024-02-28T12:04:44;25.43;;;8.37;;
3967;SDS011;9221;42.646;23.380;2024-02-28T12:07:10;24.63;;;7.30;;
3967;SDS011;9221;42.646;23.380;2024-02-28T12:09:37;16.87;;;5.97;;
3967;SDS011;9221;42.646;23.380;2024-02-28T12:12:04;20.03;;;7.33;;
3967;SDS011;9221;42.646;23.380;2024-02-28T12:14:31;20.13;;;6.43;;
3967;SDS011;9221;42.646;23.380;2024-02-28T12:16:58;32.83;;;7.97;;
3967;SDS011;9221;42.646;23.380;2024-02-28T12:19:23;16.80;;;6.50;;
3967;SDS011;9221;42.646;23.380;2024-02-28T12:21:49;20.27;;;7.30;;
3967;SDS011;9221;42.646;23.380;2024-02-28T12:24:15;19.73;;;7.30;;
3967;SDS011;9221;42.646;23.380;2024-02-28T12:26:41;25.77;;;8.30;;
3967;SDS011;9221;42.646;23.380;2024-02-28T12:29:06;36.30;;;9.20;;
3967;SDS011;9221;42.646;23.380;2024-02-28T12:31:32;20.97;;;7.63;;
3967;SDS011;9221;42.646;23.380;2024-02-28T12:33:58;22.40;;;8.90;;
3967;SDS011;9221;42.646;23.380;2024-02-28T12:36:24;24.07;;;8.07;;
3967;SDS011;9221;42.646;23.380;2024-02-28T12:38:50;31.57;;;8.80;;
3967;SDS011;9221;42.646;23.380;2024-02-28T12:41:16;29.63;;;8.30;;
3967;SDS011;9221;42.646;23.380;2024-02-28T12:43:42;38.33;;;9.50;;
3967;SDS011;9221;42.646;23.380;2024-02-28T12:46:08;18.80;;;7.60;;
3967;SDS011;9221;42.646;23.380;2024-02-28T12:48:37;27.23;;;8.13;;
3967;SDS011;9221;42.646;23.380;2024-02-28T12:51:03;30.17;;;7.67;;
3967;SDS011;9221;42.646;23.380;2024-02-28T12:53:30;22.50;;;7.50;;
3967;SDS011;9221;42.646;23.380;2024-02-28T12:55:56;23.80;;;7.10;;
3967;SDS011;9221;42.646;23.380;2024-02-28T12:58:22;19.77;;;6.97;;
3967;SDS011;9221;42.646;23.380;2024-02-28T13:00:49;20.90;;;6.80;;
3967;SDS011;9221;42.646;23.380;2024-02-28T13:03:14;19.00;;;6.50;;
3967;SDS011;9221;42.646;23.380;2024-02-28T13:05:41;21.37;;;6.70;;
3967;SDS011;9221;42.646;23.380;2024-02-28T13:08:07;19.20;;;6.20;;
3967;SDS011;9221;42.646;23.380;2024-02-28T13:10:33;16.93;;;5.50;;
3967;SDS011;9221;42.646;23.380;2024-02-28T13:13:04;18.03;;;5.83;;
3967;SDS011;9221;42.646;23.380;2024-02-28T13:15:31;21.67;;;5.27;;
3967;SDS011;9221;42.646;23.380;2024-02-28T13:17:57;15.00;;;5.50;;
3967;SDS011;9221;42.646;23.380;2024-02-28T13:20:22;14.80;;;4.80;;
3967;SDS011;9221;42.646;23.380;2024-02-28T13:22:48;13.17;;;5.07;;
3967;SDS011;9221;42.646;23.380;2024-02-28T13:25:13;14.50;;;5.17;;
3967;SDS011;9221;42.646;23.380;2024-02-28T13:27:40;19.67;;;5.27;;
3967;SDS011;9221;42.646;23.380;2024-02-28T13:30:05;24.13;;;5.20;;
3967;SDS011;9221;42.646;23.380;2024-02-28T13:32:31;16.00;;;5.00;;
3967;SDS011;9221;42.646;23.380;2024-02-28T13:34:57;12.00;;;4.40;;
3967;SDS011;9221;42.646;23.380;2024-02-28T13:37:23;14.77;;;4.80;;
3967;SDS011;9221;42.646;23.380;2024-02-28T13:39:48;13.33;;;4.80;;
3967;SDS011;9221;42.646;23.380;2024-02-28T13:42:17;12.40;;;4.90;;
3967;SDS011;9221;42.646;23.380;2024-02-28T13:44:45;16.20;;;6.17;;
3967;SDS011;9221;42.646;23.380;2024-02-28T13:47:11;14.17;;;5.00;;
3967;SDS011;9221;42.646;23.380;2024-02-28T13:49:38;26.30;;;6.40;;
3967;SDS011;9221;42.646;23.380;2024-02-28T13:52:04;19.40;;;6.33;;
3967;SDS011;9221;42.646;23.380;2024-02-28T13:54:30;30.07;;;6.97;;
3967;SDS011;9221;42.646;23.380;2024-02-28T13:56:56;20.83;;;7.27;;
3967;SDS011;9221;42.646;23.380;2024-02-28T13:59:21;22.33;;;7.20;;
3967;SDS011;9221;42.646;23.380;2024-02-28T14:01:47;23.90;;;6.70;;
3967;SDS011;9221;42.646;23.380;2024-02-28T14:04:12;19.40;;;5.87;;
3967;SDS011;9221;42.646;23.380;2024-02-28T14:06:38;21.00;;;6.80;;
3967;SDS011;9221;42.646;23.380;2024-02-28T14:09:03;23.20;;;6.80;;
3967;SDS011;9221;42.646;23.380;2024-02-28T14:11:29;28.80;;;7.90;;
3967;SDS011;9221;42.646;23.380;2024-02-28T14:13:55;23.30;;;7.70;;
3967;SDS011;9221;42.646;23.380;2024-02-28T14:16:21;31.23;;;7.70;;
3967;SDS011;9221;42.646;23.380;2024-02-28T14:18:46;24.50;;;6.80;;
3967;SDS011;9221;42.646;23.380;2024-02-28T14:21:12;24.63;;;7.00;;
3967;SDS011;9221;42.646;23.380;2024-02-28T14:23:38;24.23;;;6.87;;
3967;SDS011;9221;42.646;23.380;2024-02-28T14:26:04;16.43;;;6.60;;
3967;SDS011;9221;42.646;23.380;2024-02-28T14:28:30;20.40;;;6.73;;
3967;SDS011;9221;42.646;23.380;2024-02-28T14:30:55;24.90;;;6.80;;